Time;durP1;ratioP1;P1;durP2;ratioP2;P2;SDS_P1;SDS_P2;PMS_P1;PMS_P2;Temp;Humidity;BMP_temperature;BMP_pressure;BME280_temperature;BME280_humidity;BME280_pressure;Samples;Min_cycle;Max_cycle;Signal;HPM_P1;HPM_P2
2022/04/30 00:01:19;;;;;;;11.38;6.70;;;15.30;98.30;;;;;;5092413;28;20411;-81
2022/04/30 00:03:45;;;;;;;13.93;6.35;;;15.30;98.20;;;;;;5092511;28;20032;-81
2022/04/30 00:06:11;;;;;;;12.00;6.50;;;15.20;98.40;;;;;;5092814;28;20028;-81
2022/04/30 00:08:38;;;;;;;11.15;6.35;;;15.10;98.70;;;;;;5092293;28;20123;-81
2022/04/30 00:11:04;;;;;;;15.73;7.07;;;15.10;99.00;;;;;;5091403;28;20120;-81
2022/04/30 00:13:30;;;;;;;13.45;6.65;;;15.10;99.30;;;;;;5093382;28;20056;-83
2022/04/30 00:15:56;;;;;;;13.10;7.30;;;15.10;99.60;;;;;;5095602;28;20499;-82
2022/04/30 00:18:22;;;;;;;13.30;7.28;;;15.00;99.90;;;;;;5096348;28;20464;-82
2022/04/30 00:20:48;;;;;;;15.50;7.63;;;14.90;99.90;;;;;;5097147;28;20017;-82
2022/04/30 00:23:19;;;;;;;19.05;8.30;;;14.80;99.90;;;;;;5096351;28;20032;-83
2022/04/30 00:25:53;;;;;;;14.63;7.97;;;14.80;99.90;;;;;;5095805;28;20032;-82
2022/04/30 00:28:25;;;;;;;14.15;8.05;;;14.70;99.90;;;;;;5095843;28;20027;-82
2022/04/30 00:30:51;;;;;;;15.32;7.72;;;14.70;99.90;;;;;;5095825;28;20019;-82
2022/04/30 00:33:17;;;;;;;19.52;8.32;;;14.70;99.90;;;;;;5095434;28;20031;-83
2022/04/30 00:35:43;;;;;;;18.50;8.40;;;14.60;99.90;;;;;;5095625;28;20026;-83
2022/04/30 00:38:09;;;;;;;15.65;7.78;;;14.60;99.90;;;;;;5096067;28;20047;-83
2022/04/30 00:40:35;;;;;;;14.95;7.82;;;14.50;99.90;;;;;;5095310;28;20031;-82
2022/04/30 00:43:01;;;;;;;16.85;8.00;;;14.50;99.90;;;;;;5094987;28;20064;-82
2022/04/30 00:45:27;;;;;;;16.42;8.98;;;14.50;99.90;;;;;;5096415;28;20020;-83
2022/04/30 00:47:52;;;;;;;16.65;7.93;;;14.40;99.90;;;;;;5095920;28;20016;-80
2022/04/30 00:50:21;;;;;;;16.33;8.43;;;14.40;99.90;;;;;;5095551;28;20453;-83
2022/04/30 00:52:48;;;;;;;15.45;8.35;;;14.40;99.90;;;;;;5096274;28;20016;-83
2022/04/30 00:55:19;;;;;;;16.85;8.77;;;14.30;99.90;;;;;;5095872;28;20403;-83
2022/04/30 00:57:45;;;;;;;16.08;8.70;;;14.40;99.90;;;;;;5095416;28;20028;-83
2022/04/30 01:00:12;;;;;;;16.98;9.00;;;14.30;99.90;;;;;;5094603;28;20174;-83
2022/04/30 01:02:38;;;;;;;20.63;9.15;;;14.30;99.90;;;;;;5094792;28;20053;-83
2022/04/30 01:05:04;;;;;;;23.02;9.70;;;14.30;99.90;;;;;;5095615;28;20095;-82
2022/04/30 01:07:31;;;;;;;20.50;9.43;;;14.30;99.90;;;;;;5095374;28;20019;-83
2022/04/30 01:09:56;;;;;;;18.45;9.10;;;14.20;99.90;;;;;;5094652;28;20031;-82
2022/04/30 01:12:23;;;;;;;20.45;8.85;;;14.20;99.90;;;;;;5095922;28;20026;-80
2022/04/30 01:14:52;;;;;;;19.13;9.45;;;14.20;99.90;;;;;;5094850;28;20024;-80
2022/04/30 01:17:18;;;;;;;22.48;9.75;;;14.20;99.90;;;;;;5095260;28;20051;-81
2022/04/30 01:19:45;;;;;;;20.45;9.88;;;14.20;99.90;;;;;;5094778;28;20446;-83
2022/04/30 01:22:22;;;;;;;22.38;10.38;;;14.10;99.90;;;;;;5095413;28;20024;-83
2022/04/30 01:24:57;;;;;;;17.35;10.00;;;14.20;99.90;;;;;;5094872;28;20024;-83
2022/04/30 01:27:27;;;;;;;20.23;9.55;;;14.10;99.90;;;;;;5095966;28;20016;-83
2022/04/30 01:29:58;;;;;;;23.20;10.27;;;14.10;99.90;;;;;;5094667;28;20020;-83
2022/04/30 01:38:02;;;;;;;21.77;10.15;;;14.10;99.90;;;;;;5083822;28;20484;-81
2022/04/30 01:40:29;;;;;;;22.70;10.27;;;14.00;99.90;;;;;;5094286;28;20024;-82
2022/04/30 01:42:58;;;;;;;20.63;10.73;;;14.10;99.90;;;;;;5095482;28;20028;-82
2022/04/30 01:45:25;;;;;;;22.67;10.55;;;14.00;99.90;;;;;;5094356;28;20114;-82
2022/04/30 01:47:51;;;;;;;24.05;11.07;;;14.00;99.90;;;;;;5095256;28;20055;-82
2022/04/30 01:50:17;;;;;;;22.30;10.38;;;14.00;99.90;;;;;;5093489;28;20437;-81
2022/04/30 01:52:43;;;;;;;20.45;10.75;;;13.90;99.90;;;;;;5094000;28;20077;-81
2022/04/30 01:55:09;;;;;;;24.73;11.25;;;13.90;99.90;;;;;;5094433;28;20012;-80
2022/04/30 01:57:38;;;;;;;22.65;10.75;;;13.90;99.90;;;;;;5095206;28;20023;-80
2022/04/30 02:00:05;;;;;;;30.67;11.00;;;13.90;99.90;;;;;;5093328;28;20127;-80
2022/04/30 02:02:36;;;;;;;21.10;10.20;;;13.90;99.90;;;;;;5094036;28;20024;-80
2022/04/30 02:05:05;;;;;;;24.45;10.68;;;13.90;99.90;;;;;;5094273;28;20028;-80
2022/04/30 02:07:33;;;;;;;22.85;11.82;;;13.80;99.90;;;;;;5093764;28;20020;-81
2022/04/30 02:10:00;;;;;;;19.80;11.05;;;13.80;99.90;;;;;;5092941;28;20081;-81
2022/04/30 02:12:31;;;;;;;23.80;11.35;;;13.80;99.90;;;;;;5093376;28;20038;-81
2022/04/30 02:14:58;;;;;;;21.55;10.95;;;13.70;99.90;;;;;;5093765;28;20015;-81
2022/04/30 02:17:26;;;;;;;23.73;12.02;;;13.70;99.90;;;;;;5093258;28;20020;-81
2022/04/30 02:22:39;;;;;;;23.88;11.82;;;13.70;99.90;;;;;;5094716;28;20474;-81
2022/04/30 02:25:09;;;;;;;22.42;11.48;;;13.70;99.90;;;;;;5092895;28;20118;-80
2022/04/30 02:27:39;;;;;;;19.92;10.13;;;13.70;99.90;;;;;;5094843;28;20085;-82
2022/04/30 02:30:14;;;;;;;19.48;10.50;;;13.70;99.90;;;;;;5092862;28;20024;-80
2022/04/30 02:32:46;;;;;;;23.77;11.55;;;13.60;99.90;;;;;;5094366;28;20020;-81
2022/04/30 02:35:14;;;;;;;20.98;11.38;;;13.60;99.90;;;;;;5092851;28;20342;-80
2022/04/30 02:37:44;;;;;;;26.42;12.07;;;13.60;99.90;;;;;;5092585;28;20034;-81
2022/04/30 02:40:13;;;;;;;23.27;11.52;;;13.50;99.90;;;;;;5093851;28;20032;-80
2022/04/30 02:42:39;;;;;;;23.92;11.48;;;13.50;99.90;;;;;;5093259;28;20038;-80
2022/04/30 02:45:09;;;;;;;28.85;11.93;;;13.50;99.90;;;;;;5092746;28;20543;-80
2022/04/30 02:47:38;;;;;;;25.10;12.57;;;13.40;99.90;;;;;;5093419;28;20021;-82
2022/04/30 02:50:08;;;;;;;22.25;10.90;;;13.40;99.90;;;;;;5093315;28;20021;-82
2022/04/30 02:52:35;;;;;;;23.40;11.90;;;13.40;99.90;;;;;;5093303;28;20077;-82
2022/04/30 02:55:00;;;;;;;23.85;12.35;;;13.40;99.90;;;;;;5092776;28;20059;-80
2022/04/30 03:00:40;;;;;;;23.65;11.82;;;13.30;99.90;;;;;;5094137;28;20050;-82
2022/04/30 03:03:10;;;;;;;24.45;11.27;;;13.20;99.90;;;;;;5092376;28;20036;-82
2022/04/30 03:05:37;;;;;;;23.05;11.75;;;13.20;99.90;;;;;;5092961;28;20031;-83
2022/04/30 03:08:12;;;;;;;23.25;11.25;;;13.20;99.90;;;;;;5092312;28;20024;-82
2022/04/30 03:10:49;;;;;;;23.63;12.02;;;13.20;99.90;;;;;;5093118;28;20024;-82
2022/04/30 03:13:17;;;;;;;22.83;11.48;;;13.20;99.90;;;;;;5092328;28;20122;-82
2022/04/30 03:15:45;;;;;;;25.02;11.55;;;13.20;99.90;;;;;;5093983;28;20027;-81
2022/04/30 03:23:40;;;;;;;25.05;11.63;;;13.20;99.90;;;;;;5092190;28;20070;-81
2022/04/30 03:26:11;;;;;;;23.42;11.52;;;13.20;99.90;;;;;;5093085;28;20036;-80
2022/04/30 03:28:37;;;;;;;21.85;12.32;;;13.20;99.90;;;;;;5092194;28;20471;-81
2022/04/30 03:31:05;;;;;;;21.05;11.77;;;13.10;99.90;;;;;;5091076;28;20016;-79
2022/04/30 03:33:30;;;;;;;22.75;11.77;;;13.10;99.90;;;;;;5092086;28;20027;-79
2022/04/30 03:35:56;;;;;;;22.63;12.63;;;13.00;99.90;;;;;;5092530;28;20107;-79
2022/04/30 03:38:22;;;;;;;23.48;11.75;;;13.10;99.90;;;;;;5091615;28;20124;-79
2022/04/30 03:40:48;;;;;;;21.45;11.73;;;13.10;99.90;;;;;;5092170;28;20016;-79
2022/04/30 03:43:16;;;;;;;23.30;11.63;;;13.10;99.90;;;;;;5091136;28;20058;-79
2022/04/30 03:45:42;;;;;;;20.50;11.85;;;13.10;99.90;;;;;;5092936;28;20032;-79
2022/04/30 03:48:09;;;;;;;22.83;11.95;;;13.10;99.90;;;;;;5091856;28;20020;-79
2022/04/30 03:50:34;;;;;;;28.33;12.82;;;13.10;99.90;;;;;;5097308;28;20021;-79
2022/04/30 03:53:00;;;;;;;23.52;12.20;;;13.00;99.90;;;;;;5097300;28;20077;-79
2022/04/30 03:55:27;;;;;;;21.92;12.52;;;13.00;99.90;;;;;;5096482;28;20027;-79
2022/04/30 03:57:55;;;;;;;25.80;12.13;;;13.00;99.90;;;;;;5095336;28;20016;-78
2022/04/30 04:00:21;;;;;;;24.27;13.20;;;13.00;99.90;;;;;;5095316;28;20035;-79
2022/04/30 04:02:47;;;;;;;25.40;13.32;;;13.00;99.90;;;;;;5095651;28;20032;-79
2022/04/30 04:05:13;;;;;;;24.00;11.98;;;13.00;99.90;;;;;;5096355;28;20518;-79
2022/04/30 04:07:40;;;;;;;24.15;12.52;;;12.90;99.90;;;;;;5095700;28;20123;-83
2022/04/30 04:10:06;;;;;;;26.40;12.93;;;13.00;99.90;;;;;;5095681;28;20032;-78
2022/04/30 04:12:32;;;;;;;29.30;12.32;;;13.00;99.90;;;;;;5095645;28;20477;-84
2022/04/30 04:17:55;;;;;;;26.48;12.27;;;12.90;99.90;;;;;;5073560;28;20090;-81
2022/04/30 04:20:24;;;;;;;28.08;13.80;;;12.90;99.90;;;;;;5095108;28;20020;-84
2022/04/30 04:22:51;;;;;;;31.42;14.15;;;12.80;99.90;;;;;;5095890;28;20089;-84
2022/04/30 04:28:01;;;;;;;28.02;13.23;;;12.80;99.90;;;;;;5097007;28;20092;-85
2022/04/30 04:30:29;;;;;;;26.20;13.43;;;12.80;99.90;;;;;;5095755;28;20016;-82
2022/04/30 04:32:56;;;;;;;26.67;13.77;;;12.80;99.90;;;;;;5095098;28;20050;-82
2022/04/30 04:35:22;;;;;;;25.63;13.95;;;12.80;99.90;;;;;;5095823;28;20028;-82
2022/04/30 04:37:48;;;;;;;25.75;13.60;;;12.80;99.90;;;;;;5095584;28;20028;-82
2022/04/30 04:40:15;;;;;;;26.85;13.45;;;12.70;99.90;;;;;;5095064;28;20039;-80
2022/04/30 04:42:42;;;;;;;27.75;13.80;;;12.70;99.90;;;;;;5095275;28;20032;-80
2022/04/30 04:45:09;;;;;;;29.23;13.55;;;12.60;99.90;;;;;;5095839;28;20385;-82
2022/04/30 04:47:35;;;;;;;28.20;13.05;;;12.60;99.90;;;;;;5095495;28;20055;-85
2022/04/30 04:50:03;;;;;;;25.23;13.30;;;12.70;99.90;;;;;;5095585;28;20461;-87
2022/04/30 04:52:29;;;;;;;27.15;12.85;;;12.60;99.90;;;;;;5094751;28;20032;-86
2022/04/30 04:54:55;;;;;;;25.25;12.95;;;12.70;99.90;;;;;;5095450;28;20165;-89
2022/04/30 04:57:20;;;;;;;25.05;13.00;;;12.80;99.90;;;;;;5095994;28;20032;-88
2022/04/30 04:59:46;;;;;;;27.15;13.73;;;12.80;99.90;;;;;;5094710;28;20052;-85
2022/04/30 05:02:11;;;;;;;22.85;13.13;;;12.70;99.90;;;;;;5095311;28;20077;-84
2022/04/30 05:04:37;;;;;;;29.35;13.88;;;12.70;99.90;;;;;;5095019;28;20028;-83
2022/04/30 05:07:03;;;;;;;26.55;13.80;;;12.70;99.90;;;;;;5094973;28;20028;-84
2022/04/30 05:09:31;;;;;;;27.35;14.75;;;12.80;99.90;;;;;;5095417;28;20067;-84
2022/04/30 05:12:01;;;;;;;24.92;13.65;;;12.70;99.90;;;;;;5095150;28;20396;-85
2022/04/30 05:14:33;;;;;;;27.33;14.95;;;12.70;99.90;;;;;;5095800;28;20024;-85
2022/04/30 05:17:04;;;;;;;24.70;13.70;;;12.70;99.90;;;;;;5095097;28;20057;-85
2022/04/30 05:19:29;;;;;;;24.08;12.82;;;12.70;99.90;;;;;;5094274;28;20056;-83
2022/04/30 05:21:55;;;;;;;25.88;13.95;;;12.70;99.90;;;;;;5095910;28;20039;-84
2022/04/30 05:24:21;;;;;;;29.35;13.82;;;12.70;99.90;;;;;;5095051;28;20032;-84
2022/04/30 05:26:50;;;;;;;28.42;13.60;;;12.70;99.90;;;;;;5094593;28;20024;-84
2022/04/30 05:29:16;;;;;;;22.35;13.00;;;12.70;99.90;;;;;;5093948;28;20429;-83
2022/04/30 05:31:43;;;;;;;21.67;12.52;;;12.70;99.90;;;;;;5094583;28;20055;-83
2022/04/30 05:34:09;;;;;;;21.33;12.55;;;12.70;99.90;;;;;;5095255;28;20032;-83
2022/04/30 05:36:34;;;;;;;21.55;11.70;;;12.70;99.90;;;;;;5094429;28;20031;-83
2022/04/30 05:39:00;;;;;;;23.60;12.63;;;12.70;99.90;;;;;;5095209;28;20020;-82
2022/04/30 05:41:28;;;;;;;27.25;13.07;;;12.70;99.90;;;;;;5094724;28;20068;-83
2022/04/30 05:43:54;;;;;;;22.10;12.98;;;12.70;99.90;;;;;;5094265;28;20028;-83
2022/04/30 05:46:19;;;;;;;21.02;12.20;;;12.60;99.90;;;;;;5094572;28;20161;-83
2022/04/30 05:48:45;;;;;;;22.27;12.18;;;12.70;99.90;;;;;;5095140;28;20034;-83
2022/04/30 05:51:10;;;;;;;20.13;11.57;;;12.70;99.90;;;;;;5093615;28;20020;-80
2022/04/30 05:53:36;;;;;;;21.50;12.15;;;12.70;99.90;;;;;;5093916;28;20031;-82
2022/04/30 05:56:02;;;;;;;22.08;11.35;;;12.70;99.90;;;;;;5094055;28;20085;-85
2022/04/30 05:58:27;;;;;;;24.00;11.90;;;12.70;99.90;;;;;;5093375;28;20087;-85
2022/04/30 06:00:53;;;;;;;26.08;12.98;;;12.60;99.90;;;;;;5095124;28;20487;-85
2022/04/30 06:03:19;;;;;;;22.13;11.98;;;12.60;99.90;;;;;;5094435;28;20085;-85
2022/04/30 06:05:44;;;;;;;20.80;11.98;;;12.70;99.90;;;;;;5093892;28;20039;-85
2022/04/30 06:08:11;;;;;;;23.27;11.68;;;12.70;99.90;;;;;;5095198;28;20024;-85
2022/04/30 06:10:37;;;;;;;21.58;12.02;;;12.80;99.90;;;;;;5093661;28;20040;-84
2022/04/30 06:13:03;;;;;;;23.27;12.77;;;12.80;99.90;;;;;;5092862;28;20110;-85
2022/04/30 06:15:28;;;;;;;23.92;12.05;;;12.80;99.90;;;;;;5093353;28;20026;-85
2022/04/30 06:17:54;;;;;;;23.58;12.80;;;12.80;99.90;;;;;;5093774;28;20020;-85
2022/04/30 06:20:20;;;;;;;20.52;11.95;;;12.80;99.90;;;;;;5093254;28;20028;-85
2022/04/30 06:22:46;;;;;;;24.55;12.45;;;12.80;99.90;;;;;;5093491;28;20028;-85
2022/04/30 06:25:12;;;;;;;21.52;12.23;;;12.80;99.90;;;;;;5093395;28;20032;-80
2022/04/30 06:27:38;;;;;;;20.92;12.07;;;12.80;99.90;;;;;;5094488;28;20035;-84
2022/04/30 06:30:06;;;;;;;22.23;12.57;;;12.80;99.90;;;;;;5093600;28;20028;-85
2022/04/30 06:32:32;;;;;;;19.95;11.02;;;12.80;99.90;;;;;;5093817;28;20583;-85
2022/04/30 06:34:58;;;;;;;24.23;12.57;;;12.80;99.90;;;;;;5094383;28;20028;-85
2022/04/30 06:37:23;;;;;;;21.20;11.60;;;12.60;99.90;;;;;;5093764;28;20163;-85
2022/04/30 06:39:49;;;;;;;20.33;12.32;;;12.60;99.90;;;;;;5093087;28;20048;-85
2022/04/30 06:42:15;;;;;;;19.17;11.45;;;12.60;99.90;;;;;;5093739;28;20020;-86
2022/04/30 06:44:40;;;;;;;20.95;11.60;;;12.70;99.90;;;;;;5094146;28;20059;-86
2022/04/30 06:47:06;;;;;;;21.35;11.50;;;12.70;99.90;;;;;;5093386;28;20358;-86
2022/04/30 06:49:32;;;;;;;20.35;11.57;;;12.70;99.90;;;;;;5092728;28;20052;-86
2022/04/30 06:51:57;;;;;;;22.83;12.15;;;12.70;99.90;;;;;;5092753;28;20111;-86
2022/04/30 06:57:16;;;;;;;21.48;12.00;;;12.70;99.90;;;;;;5093814;28;20500;-86
2022/04/30 06:59:45;;;;;;;22.05;11.57;;;12.70;99.90;;;;;;5092949;28;20098;-85
2022/04/30 07:02:18;;;;;;;19.35;11.40;;;12.60;99.90;;;;;;5094197;28;20454;-87
2022/04/30 07:04:48;;;;;;;18.92;11.32;;;12.60;99.90;;;;;;5093164;28;20028;-87
2022/04/30 07:07:15;;;;;;;20.05;11.60;;;12.60;99.90;;;;;;5093314;28;20105;-86
2022/04/30 07:09:40;;;;;;;20.50;11.65;;;12.60;99.90;;;;;;5094042;28;20024;-87
2022/04/30 07:12:09;;;;;;;19.70;10.98;;;12.60;99.90;;;;;;5093161;28;20035;-87
2022/04/30 07:14:36;;;;;;;18.17;11.27;;;12.60;99.90;;;;;;5093500;28;20192;-86
2022/04/30 07:17:09;;;;;;;23.73;11.75;;;12.70;99.90;;;;;;5092959;28;20047;-85
2022/04/30 07:19:36;;;;;;;20.67;12.05;;;12.50;99.90;;;;;;5092259;28;20324;-85
2022/04/30 07:22:02;;;;;;;20.08;11.27;;;12.50;99.90;;;;;;5092742;28;20025;-84
2022/04/30 07:24:28;;;;;;;19.92;11.10;;;12.50;99.90;;;;;;5095843;28;20124;-84
2022/04/30 07:26:54;;;;;;;20.63;11.55;;;12.50;99.90;;;;;;5096656;28;20026;-85
2022/04/30 07:29:20;;;;;;;22.83;12.13;;;12.60;99.90;;;;;;5097268;28;20106;-83
2022/04/30 07:31:46;;;;;;;22.90;12.07;;;12.60;99.90;;;;;;5096583;28;20024;-83
2022/04/30 07:34:12;;;;;;;21.55;11.57;;;12.60;99.90;;;;;;5096742;28;20028;-85
2022/04/30 07:36:38;;;;;;;21.17;11.93;;;12.60;99.90;;;;;;5096283;28;20024;-84
2022/04/30 07:39:04;;;;;;;16.45;11.00;;;12.60;99.90;;;;;;5096539;28;20030;-84
2022/04/30 07:41:30;;;;;;;21.55;11.15;;;12.60;99.90;;;;;;5097282;28;20039;-85
2022/04/30 07:43:56;;;;;;;22.88;11.57;;;12.60;99.90;;;;;;5096254;28;20115;-85
2022/04/30 07:46:24;;;;;;;18.00;10.75;;;12.70;99.90;;;;;;5095981;28;20105;-82
2022/04/30 07:48:51;;;;;;;19.70;10.95;;;12.70;99.90;;;;;;5095724;28;20461;-83
2022/04/30 07:51:23;;;;;;;20.67;11.43;;;12.80;99.90;;;;;;5095654;28;20080;-82
2022/04/30 07:53:49;;;;;;;19.08;10.80;;;12.80;99.90;;;;;;5090558;28;20031;-83
2022/04/30 07:56:15;;;;;;;19.23;10.90;;;12.90;99.90;;;;;;5097569;28;20020;-84
2022/04/30 07:58:41;;;;;;;18.17;10.73;;;12.80;99.90;;;;;;5096236;28;20110;-85
2022/04/30 08:01:07;;;;;;;16.95;10.50;;;12.70;99.90;;;;;;5093439;28;20129;-84
2022/04/30 08:03:33;;;;;;;19.00;10.45;;;12.70;99.90;;;;;;5094743;28;20028;-86
2022/04/30 08:05:59;;;;;;;16.05;9.82;;;12.70;99.90;;;;;;5095940;28;20077;-83
2022/04/30 08:08:25;;;;;;;20.65;10.80;;;12.70;99.90;;;;;;5095891;28;20032;-85
2022/04/30 08:10:50;;;;;;;17.30;10.80;;;12.70;99.90;;;;;;5093211;28;20040;-84
2022/04/30 08:13:16;;;;;;;17.77;10.95;;;12.60;99.90;;;;;;5094432;28;20112;-84
2022/04/30 08:15:43;;;;;;;18.73;10.65;;;12.60;99.90;;;;;;5095884;28;20035;-84
2022/04/30 08:18:12;;;;;;;18.00;10.35;;;12.60;99.90;;;;;;5097276;28;20016;-84
2022/04/30 08:20:38;;;;;;;17.30;10.90;;;12.70;99.90;;;;;;5090455;28;20295;-83
2022/04/30 08:23:06;;;;;;;18.10;10.60;;;12.60;99.90;;;;;;5095037;28;20020;-85
2022/04/30 08:25:33;;;;;;;14.98;9.95;;;12.60;99.90;;;;;;5095022;28;20078;-85
2022/04/30 08:27:59;;;;;;;16.00;9.90;;;12.60;99.90;;;;;;5095896;28;20123;-86
2022/04/30 08:30:24;;;;;;;17.20;11.20;;;12.60;99.90;;;;;;5095508;28;20024;-86
2022/04/30 08:32:50;;;;;;;17.52;11.00;;;12.60;99.90;;;;;;5095844;28;20031;-86
2022/04/30 08:35:16;;;;;;;18.45;10.70;;;12.60;99.90;;;;;;5094629;28;20059;-81
2022/04/30 08:37:41;;;;;;;17.27;11.13;;;12.60;99.90;;;;;;5092305;28;20039;-80
2022/04/30 08:40:07;;;;;;;16.38;10.48;;;12.60;99.90;;;;;;5095122;28;20024;-84
2022/04/30 08:42:33;;;;;;;16.17;10.63;;;12.60;99.90;;;;;;5094065;28;20407;-85
2022/04/30 08:45:03;;;;;;;18.88;10.82;;;12.60;99.90;;;;;;5096118;28;20099;-83
2022/04/30 08:47:37;;;;;;;16.65;10.73;;;12.60;99.90;;;;;;5094348;28;20089;-82
2022/04/30 08:50:03;;;;;;;19.63;10.95;;;12.60;99.90;;;;;;5094951;28;20058;-83
2022/04/30 08:52:29;;;;;;;17.42;10.38;;;12.60;99.90;;;;;;5094011;28;20040;-81
2022/04/30 08:54:54;;;;;;;17.55;10.88;;;12.60;99.90;;;;;;5094507;28;20020;-83
2022/04/30 08:57:20;;;;;;;18.48;10.45;;;12.60;99.90;;;;;;5094396;28;20028;-81
2022/04/30 08:59:46;;;;;;;17.75;10.38;;;12.60;99.90;;;;;;5094105;28;20097;-84
2022/04/30 09:02:12;;;;;;;17.15;10.68;;;12.50;99.90;;;;;;5094132;28;20071;-84
2022/04/30 09:04:43;;;;;;;17.95;10.75;;;12.60;99.90;;;;;;5094496;28;20421;-83
2022/04/30 09:07:16;;;;;;;17.08;10.32;;;12.60;99.90;;;;;;5094129;28;20027;-83
2022/04/30 09:09:43;;;;;;;19.13;11.05;;;12.60;99.90;;;;;;5094804;28;20536;-85
2022/04/30 09:12:10;;;;;;;18.00;10.20;;;12.60;99.90;;;;;;5094321;28;20346;-84
2022/04/30 09:14:41;;;;;;;17.42;10.27;;;12.50;99.90;;;;;;5093710;28;20128;-93
2022/04/30 09:17:09;;;;;;;17.02;10.18;;;12.60;99.90;;;;;;5098284;28;20028;-94
2022/04/30 09:20:03;;;;;;;17.75;9.88;;;12.60;99.90;;;;;;5096364;28;20024;-93
2022/04/30 09:22:36;;;;;;;16.95;9.85;;;12.70;99.90;;;;;;5096926;28;20035;-85
2022/04/30 09:25:07;;;;;;;18.17;10.85;;;12.80;99.90;;;;;;5096745;28;20024;-81
2022/04/30 09:27:33;;;;;;;19.98;10.45;;;12.80;99.90;;;;;;5094485;28;20536;-81
2022/04/30 09:29:59;;;;;;;16.35;9.93;;;12.80;99.90;;;;;;5094698;28;20056;-80
2022/04/30 09:32:26;;;;;;;20.13;10.85;;;12.90;99.90;;;;;;5094593;28;20024;-80
2022/04/30 09:37:49;;;;;;;17.48;9.48;;;12.90;99.90;;;;;;5087471;28;20077;-80
2022/04/30 09:40:14;;;;;;;18.75;10.02;;;13.00;99.90;;;;;;5097704;28;20024;-82
2022/04/30 09:42:48;;;;;;;19.00;9.93;;;13.10;99.90;;;;;;5093054;28;20028;-83
2022/04/30 09:45:31;;;;;;;17.60;9.88;;;13.20;99.90;;;;;;5093868;28;20025;-84
2022/04/30 09:48:02;;;;;;;16.48;10.00;;;13.20;99.90;;;;;;5093661;28;20494;-84
2022/04/30 09:56:08;;;;;;;14.63;10.15;;;13.50;99.90;;;;;;5094280;28;20034;-80
2022/04/30 09:58:38;;;;;;;16.65;9.73;;;13.50;99.90;;;;;;5094632;28;20155;-80
2022/04/30 10:01:05;;;;;;;17.17;10.75;;;13.50;99.90;;;;;;5096103;28;20525;-80
2022/04/30 10:03:31;;;;;;;16.85;11.02;;;13.50;99.90;;;;;;5095696;28;20025;-79
2022/04/30 10:06:05;;;;;;;16.85;10.63;;;13.50;99.90;;;;;;5092964;28;20033;-78
2022/04/30 10:08:39;;;;;;;17.58;10.88;;;13.50;99.90;;;;;;5093806;28;20028;-79
2022/04/30 10:11:20;;;;;;;17.40;11.15;;;13.50;99.90;;;;;;5095445;28;20024;-80
2022/04/30 10:14:14;;;;;;;19.60;10.93;;;13.40;99.90;;;;;;5096094;28;20040;-81
2022/04/30 10:16:42;;;;;;;21.00;12.05;;;13.50;99.90;;;;;;5094768;28;20230;-78
2022/04/30 10:19:14;;;;;;;17.08;10.80;;;13.60;99.90;;;;;;5093608;28;20028;-79
2022/04/30 10:21:41;;;;;;;18.75;12.30;;;13.60;99.90;;;;;;5093477;28;20169;-81
2022/04/30 10:24:09;;;;;;;17.70;11.25;;;13.50;99.90;;;;;;5092848;28;20070;-81
2022/04/30 10:26:35;;;;;;;18.83;11.63;;;13.30;99.90;;;;;;5092318;28;20035;-81
2022/04/30 10:29:11;;;;;;;19.65;11.77;;;13.30;99.90;;;;;;5092862;28;20024;-80
2022/04/30 10:31:44;;;;;;;22.88;12.55;;;13.30;99.90;;;;;;5093069;28;20030;-78
2022/04/30 10:34:11;;;;;;;19.08;10.77;;;13.30;99.90;;;;;;5093521;28;20028;-80
2022/04/30 10:36:39;;;;;;;17.42;11.02;;;13.30;99.90;;;;;;5091833;28;20526;-82
2022/04/30 10:39:09;;;;;;;19.48;11.73;;;13.30;99.90;;;;;;5092440;28;20016;-81
2022/04/30 10:41:45;;;;;;;17.58;11.57;;;13.20;99.90;;;;;;5093274;28;20081;-82
2022/04/30 10:44:13;;;;;;;18.73;11.65;;;13.20;99.90;;;;;;5092754;28;20035;-83
2022/04/30 10:46:42;;;;;;;18.52;11.45;;;13.20;99.90;;;;;;5093010;28;20020;-82
2022/04/30 10:49:08;;;;;;;18.05;10.93;;;13.10;99.90;;;;;;5092540;28;20102;-80
2022/04/30 10:51:39;;;;;;;17.15;10.23;;;13.00;99.90;;;;;;5091127;28;20526;-78
2022/04/30 10:54:13;;;;;;;14.50;9.15;;;13.10;99.90;;;;;;5089549;28;20433;-83
2022/04/30 10:56:39;;;;;;;15.48;9.27;;;13.10;99.90;;;;;;5092010;28;20452;-83
2022/04/30 10:59:06;;;;;;;14.30;9.30;;;13.00;99.90;;;;;;5091775;28;20055;-83
2022/04/30 11:01:33;;;;;;;14.13;9.23;;;13.00;99.90;;;;;;5091874;28;20032;-84
2022/04/30 11:04:01;;;;;;;14.70;8.57;;;13.00;99.90;;;;;;5092539;28;20119;-82
2022/04/30 11:06:30;;;;;;;15.00;9.10;;;12.90;99.90;;;;;;5091193;28;20035;-80
2022/04/30 11:09:09;;;;;;;14.75;9.27;;;12.90;99.90;;;;;;5091872;28;20024;-81
2022/04/30 11:11:36;;;;;;;16.17;9.30;;;12.90;99.90;;;;;;5089536;28;20056;-82
2022/04/30 11:14:07;;;;;;;18.85;9.38;;;12.80;99.90;;;;;;5091697;28;20115;-81
2022/04/30 11:16:38;;;;;;;13.18;8.60;;;12.80;99.90;;;;;;5089889;28;20581;-81
2022/04/30 11:19:08;;;;;;;13.93;8.20;;;12.90;99.90;;;;;;5091630;28;20028;-81
2022/04/30 11:21:35;;;;;;;14.52;9.07;;;12.90;99.90;;;;;;5091327;28;20027;-81
2022/04/30 11:24:02;;;;;;;14.13;8.43;;;13.00;99.90;;;;;;5091702;28;20047;-81
2022/04/30 11:26:29;;;;;;;14.13;8.63;;;13.10;99.90;;;;;;5091363;28;20029;-81
2022/04/30 11:28:55;;;;;;;17.42;8.95;;;13.20;99.90;;;;;;5091893;28;20476;-80
2022/04/30 11:31:21;;;;;;;14.15;8.75;;;13.30;99.90;;;;;;5092908;28;20028;-80
2022/04/30 11:33:47;;;;;;;14.85;7.95;;;13.30;99.90;;;;;;5091582;28;20036;-81
2022/04/30 11:36:13;;;;;;;14.50;8.07;;;13.30;99.90;;;;;;5091899;28;20521;-81
2022/04/30 11:38:39;;;;;;;14.52;8.10;;;13.40;99.90;;;;;;5092562;28;20035;-80
2022/04/30 11:41:07;;;;;;;12.50;8.15;;;13.40;99.90;;;;;;5092786;28;20484;-81
2022/04/30 11:43:33;;;;;;;13.50;7.00;;;13.30;99.90;;;;;;5092188;28;20124;-80
2022/04/30 11:46:03;;;;;;;13.23;7.68;;;13.30;99.90;;;;;;5093183;28;20103;-81
2022/04/30 11:48:39;;;;;;;13.77;7.55;;;13.30;99.90;;;;;;5092682;28;20024;-81
2022/04/30 11:51:07;;;;;;;13.80;8.15;;;13.30;99.90;;;;;;5091912;28;20028;-80
2022/04/30 11:53:33;;;;;;;12.30;7.68;;;13.30;99.90;;;;;;5090195;28;20035;-80
2022/04/30 11:55:59;;;;;;;13.13;7.43;;;13.30;99.90;;;;;;5090788;28;20111;-80
2022/04/30 11:58:25;;;;;;;12.52;7.50;;;13.40;99.90;;;;;;5090876;28;20123;-80
2022/04/30 12:00:53;;;;;;;13.70;7.95;;;13.40;99.90;;;;;;5092442;28;20024;-82
2022/04/30 12:03:28;;;;;;;12.90;7.30;;;13.50;99.90;;;;;;5091269;28;20038;-81
2022/04/30 12:05:55;;;;;;;12.70;7.90;;;13.50;99.90;;;;;;5092296;28;20032;-81
2022/04/30 12:08:27;;;;;;;11.73;7.60;;;13.70;99.90;;;;;;5094174;28;20098;-79
2022/04/30 12:10:57;;;;;;;11.73;7.00;;;13.90;99.90;;;;;;5095503;28;20557;-80
2022/04/30 12:13:24;;;;;;;10.85;6.70;;;14.00;99.90;;;;;;5096764;28;20043;-80
2022/04/30 12:15:49;;;;;;;12.63;6.97;;;14.10;99.90;;;;;;5096898;28;20027;-81
2022/04/30 12:26:58;;;;;;;10.52;7.07;;;14.00;99.90;;;;;;5100310;28;20031;-81
2022/04/30 12:29:25;;;;;;;11.38;7.55;;;14.00;99.90;;;;;;5098749;28;20020;-81
2022/04/30 12:31:51;;;;;;;11.32;7.32;;;13.90;99.90;;;;;;5096883;28;20047;-81
2022/04/30 12:34:21;;;;;;;13.80;8.00;;;13.80;99.90;;;;;;5097363;28;20028;-80
2022/04/30 12:37:06;;;;;;;11.70;7.68;;;13.70;99.90;;;;;;5094719;28;20077;-79
2022/04/30 12:39:31;;;;;;;13.20;8.15;;;13.60;99.90;;;;;;5089711;28;20063;-79
2022/04/30 12:41:57;;;;;;;12.82;8.23;;;13.60;99.90;;;;;;5094454;28;20067;-82
2022/04/30 12:44:24;;;;;;;12.43;7.82;;;13.50;99.90;;;;;;5094179;28;20039;-82
2022/04/30 12:46:49;;;;;;;15.50;8.18;;;13.50;99.90;;;;;;5094804;28;20059;-81
2022/04/30 12:49:16;;;;;;;12.40;7.72;;;13.40;99.90;;;;;;5093763;28;20059;-78
2022/04/30 12:51:44;;;;;;;15.50;8.73;;;13.40;99.90;;;;;;5093753;28;20024;-88
2022/04/30 12:54:12;;;;;;;14.10;7.85;;;13.40;99.90;;;;;;5095623;28;20028;-87
2022/04/30 12:56:38;;;;;;;11.75;7.50;;;13.40;99.90;;;;;;5094783;28;20020;-86
2022/04/30 12:59:04;;;;;;;11.70;7.82;;;13.30;99.90;;;;;;5093726;28;20396;-87
2022/04/30 13:01:30;;;;;;;10.60;6.70;;;13.30;99.90;;;;;;5094120;28;20029;-85
2022/04/30 13:03:56;;;;;;;12.98;7.22;;;13.40;99.90;;;;;;5094376;28;20154;-87
2022/04/30 13:06:21;;;;;;;11.52;6.97;;;13.50;99.90;;;;;;5094632;28;20089;-85
2022/04/30 13:14:16;;;;;;;13.35;7.90;;;13.60;99.90;;;;;;5096030;28;20186;-87
2022/04/30 13:16:41;;;;;;;12.73;8.32;;;13.70;99.90;;;;;;5077279;28;20053;-87
2022/04/30 13:19:07;;;;;;;13.95;8.23;;;13.80;99.90;;;;;;5094492;28;20185;-86
2022/04/30 13:21:33;;;;;;;12.02;8.13;;;13.90;99.90;;;;;;5093459;28;20020;-87